createdAt,value
2024-01-04T00:00:16.518Z,68.62
2024-01-04T00:02:45.154Z,69.29
2024-01-04T00:05:13.181Z,69.33
2024-01-04T00:07:41.233Z,69.41
2024-01-04T00:10:09.807Z,69.33
2024-01-04T00:12:38.016Z,69.29
2024-01-04T00:15:07.400Z,69.63
2024-01-04T00:17:35.410Z,69.62
2024-01-04T00:20:04.217Z,69.98
2024-01-04T00:22:32.589Z,70.23
2024-01-04T00:25:00.762Z,70.61
2024-01-04T00:27:28.874Z,71.06
2024-01-04T00:34:53.372Z,71.73
2024-01-04T00:37:23.164Z,71.83
2024-01-04T00:39:51.542Z,71.27
2024-01-04T00:42:19.535Z,72.32
2024-01-04T00:44:47.702Z,71.92
2024-01-04T00:47:15.569Z,71.86
2024-01-04T00:49:43.571Z,71.95
2024-01-04T00:52:11.731Z,71.45
2024-01-04T00:54:39.641Z,71.69
2024-01-04T00:57:09.630Z,72.17
2024-01-04T00:59:37.752Z,71.80
2024-01-04T01:02:05.985Z,71.55
2024-01-04T01:04:34.040Z,71.38
2024-01-04T01:07:01.908Z,72.87
2024-01-04T01:09:29.945Z,72.14
2024-01-04T01:11:58.142Z,71.39
2024-01-04T01:14:26.551Z,71.15
2024-01-04T01:16:54.427Z,71.43
2024-01-04T01:19:22.608Z,71.50
2024-01-04T01:21:50.618Z,71.73
2024-01-04T01:24:18.970Z,71.31
2024-01-04T01:26:47.105Z,71.96
2024-01-04T01:29:15.187Z,72.12
2024-01-04T01:31:44.129Z,71.41
2024-01-04T01:34:12.491Z,71.18
2024-01-04T01:36:43.581Z,70.59
2024-01-04T01:39:12.653Z,71.35
2024-01-04T01:41:40.816Z,71.45
2024-01-04T01:44:08.996Z,71.59
2024-01-04T01:46:37.388Z,71.16
2024-01-04T01:49:05.457Z,71.71
2024-01-04T01:51:33.535Z,72.05
2024-01-04T01:54:02.654Z,71.09
2024-01-04T01:56:32.416Z,71.73
2024-01-04T02:02:51.175Z,73.69
2024-01-04T02:05:19.291Z,73.02
2024-01-04T02:07:47.299Z,73.14
2024-01-04T02:10:15.322Z,72.99
2024-01-04T02:12:44.020Z,72.94
2024-01-04T02:15:12.173Z,72.74
2024-01-04T02:17:41.355Z,72.65
2024-01-04T02:20:12.632Z,72.87
2024-01-04T02:22:45.575Z,72.90
2024-01-04T02:25:13.521Z,71.94
2024-01-04T02:27:41.481Z,72.44
2024-01-04T02:30:09.844Z,71.62
2024-01-04T02:32:38.108Z,71.30
2024-01-04T02:35:06.684Z,71.51
2024-01-04T02:37:34.670Z,70.51
2024-01-04T02:40:02.812Z,71.26
2024-01-04T02:42:32.470Z,70.82
2024-01-04T02:45:00.769Z,70.75
2024-01-04T02:47:28.821Z,70.65
2024-01-04T02:49:56.697Z,70.43
2024-01-04T02:52:24.657Z,70.25
2024-01-04T02:54:52.569Z,69.75
2024-01-04T02:57:20.569Z,69.98
2024-01-04T03:03:13.709Z,69.31
2024-01-04T03:05:41.996Z,69.07
2024-01-04T03:08:09.887Z,68.42
2024-01-04T03:10:37.805Z,68.75
2024-01-04T03:13:08.178Z,68.89
2024-01-04T03:15:36.156Z,69.01
2024-01-04T03:18:04.450Z,69.30
2024-01-04T03:20:32.423Z,69.64
2024-01-04T03:23:00.498Z,69.32
2024-01-04T03:25:28.460Z,69.97
2024-01-04T03:27:56.336Z,70.75
2024-01-04T03:30:24.424Z,69.99
2024-01-04T03:32:52.712Z,70.70
2024-01-04T03:35:20.745Z,70.46
2024-01-04T03:37:48.669Z,70.04
2024-01-04T03:40:16.840Z,71.36
2024-01-04T03:42:44.813Z,70.25
2024-01-04T03:45:12.768Z,70.71
2024-01-04T03:47:41.369Z,70.48
2024-01-04T03:50:09.571Z,70.12
2024-01-04T03:52:37.532Z,70.86
2024-01-04T03:55:05.868Z,70.89
2024-01-04T03:57:35.733Z,72.37
2024-01-04T04:00:04.776Z,72.80
2024-01-04T04:02:40.085Z,73.67
2024-01-04T04:05:08.430Z,74.17
2024-01-04T04:07:36.458Z,73.95
2024-01-04T04:10:04.759Z,74.50
2024-01-04T04:12:32.770Z,74.57
2024-01-04T04:15:02.466Z,75.29
2024-01-04T04:17:31.771Z,74.80
2024-01-04T04:19:59.918Z,74.42
2024-01-04T04:22:27.841Z,74.82
2024-01-04T04:24:55.815Z,74.45
2024-01-04T04:27:23.730Z,74.54
2024-01-04T04:29:51.708Z,73.91
2024-01-04T04:32:19.910Z,74.09
2024-01-04T04:34:48.089Z,74.00
2024-01-04T04:37:16.286Z,73.96
2024-01-04T04:39:46.349Z,73.76
2024-01-04T04:42:14.501Z,73.98
2024-01-04T04:44:42.652Z,73.64
2024-01-04T04:47:10.744Z,73.40
2024-01-04T04:49:38.680Z,73.14
2024-01-04T04:52:06.886Z,72.97
2024-01-04T04:54:37.822Z,72.79
2024-01-04T04:57:06.662Z,71.71
2024-01-04T04:59:34.858Z,71.69
2024-01-04T05:02:02.996Z,70.70
2024-01-04T05:04:30.902Z,70.50
2024-01-04T05:06:58.976Z,70.52
2024-01-04T05:09:27.072Z,70.79
2024-01-04T05:11:55.311Z,70.28
2024-01-04T05:14:23.278Z,70.45
2024-01-04T05:16:51.600Z,70.09
2024-01-04T05:19:19.846Z,69.63
2024-01-04T05:21:47.883Z,69.81
2024-01-04T05:24:15.825Z,70.45
2024-01-04T05:26:43.903Z,70.34
2024-01-04T05:29:11.766Z,69.99
2024-01-04T05:31:39.709Z,69.55
2024-01-04T05:34:07.888Z,70.71
2024-01-04T05:36:36.116Z,70.65
2024-01-04T05:39:04.818Z,70.54
2024-01-04T05:41:33.193Z,70.87
2024-01-04T05:44:01.222Z,70.75
2024-01-04T05:46:29.280Z,72.16
2024-01-04T05:48:57.408Z,71.81
2024-01-04T05:51:25.552Z,72.45
2024-01-04T05:54:10.270Z,72.63
2024-01-04T05:56:38.944Z,72.46
2024-01-04T05:59:07.001Z,72.83
2024-01-04T06:01:35.374Z,73.57
2024-01-04T06:04:03.449Z,73.40
2024-01-04T06:06:31.608Z,73.03
2024-01-04T06:08:59.665Z,73.81
2024-01-04T06:11:27.728Z,73.32
2024-01-04T06:13:56.129Z,75.17
2024-01-04T06:16:24.206Z,74.80
2024-01-04T06:18:53.078Z,75.56
2024-01-04T06:21:21.295Z,76.04
2024-01-04T06:23:49.250Z,76.50
2024-01-04T06:26:20.709Z,77.17
2024-01-04T06:28:51.233Z,78.01
2024-01-04T06:31:19.300Z,77.50
2024-01-04T06:33:47.556Z,77.49
2024-01-04T06:36:15.683Z,77.34
2024-01-04T06:38:43.581Z,76.83
2024-01-04T06:41:13.432Z,76.86
2024-01-04T06:43:41.507Z,77.95
2024-01-04T06:46:12.014Z,77.35
2024-01-04T06:48:41.778Z,77.06
2024-01-04T06:51:10.049Z,77.42
2024-01-04T06:53:38.279Z,76.94
2024-01-04T06:56:07.343Z,77.22
2024-01-04T06:58:35.262Z,77.27
2024-01-04T07:01:03.154Z,76.47
2024-01-04T07:03:31.859Z,75.42
2024-01-04T07:06:00.018Z,76.51
2024-01-04T07:08:28.069Z,75.77
2024-01-04T07:10:55.915Z,75.64
2024-01-04T07:13:23.897Z,74.78
2024-01-04T07:15:51.822Z,74.36
2024-01-04T07:18:19.940Z,73.25
2024-01-04T07:20:48.230Z,72.93
2024-01-04T07:23:16.720Z,71.74
2024-01-04T07:25:45.281Z,71.90
2024-01-04T07:28:13.184Z,70.45
2024-01-04T07:30:41.689Z,69.69
2024-01-04T07:33:10.010Z,69.99
2024-01-04T07:35:38.674Z,69.31
2024-01-04T07:38:06.813Z,69.67
2024-01-04T07:40:34.859Z,68.53
2024-01-04T07:43:02.842Z,66.71
2024-01-04T07:45:30.890Z,66.76
2024-01-04T07:47:58.995Z,66.43
2024-01-04T07:50:27.920Z,66.26
2024-01-04T07:52:56.973Z,65.45
2024-01-04T07:55:25.062Z,64.53
2024-01-04T07:57:53.370Z,64.16
2024-01-04T08:00:21.664Z,64.92
2024-01-04T08:02:49.723Z,64.62
2024-01-04T08:05:17.987Z,64.56
2024-01-04T08:07:45.985Z,63.13
2024-01-04T08:10:14.071Z,63.21
2024-01-04T08:12:42.431Z,64.47
2024-01-04T08:15:11.406Z,63.92
2024-01-04T08:17:39.862Z,63.39
2024-01-04T08:20:08.873Z,64.35
2024-01-04T08:22:36.970Z,63.11
2024-01-04T08:25:05.842Z,63.10
2024-01-04T08:27:33.885Z,63.33
2024-01-04T08:30:01.963Z,63.13
2024-01-04T08:32:30.053Z,64.09
2024-01-04T08:34:58.071Z,64.46
2024-01-04T08:37:26.153Z,63.35
2024-01-04T08:39:54.497Z,63.25
2024-01-04T08:42:22.579Z,63.25
2024-01-04T08:44:50.613Z,64.12
2024-01-04T08:47:18.582Z,63.91
2024-01-04T08:49:46.620Z,63.78
2024-01-04T08:52:14.652Z,63.50
2024-01-04T08:54:43.853Z,64.41
2024-01-04T08:57:11.958Z,63.51
2024-01-04T08:59:39.995Z,63.64
2024-01-04T09:02:10.536Z,62.50
2024-01-04T09:04:39.412Z,63.16
2024-01-04T09:07:08.650Z,62.49
2024-01-04T09:09:37.039Z,59.49
2024-01-04T09:12:05.424Z,58.56
2024-01-04T09:14:33.882Z,57.84
2024-01-04T09:17:02.167Z,56.51
2024-01-04T09:19:30.310Z,57.12
2024-01-04T09:21:58.674Z,56.07
2024-01-04T09:24:26.788Z,57.16
2024-01-04T09:26:54.760Z,56.72
2024-01-04T09:29:22.850Z,55.30
2024-01-04T09:31:50.880Z,52.60
2024-01-04T09:34:19.152Z,53.13
2024-01-04T09:36:47.536Z,52.43
2024-01-04T09:39:19.592Z,49.83
2024-01-04T09:41:49.613Z,49.02
2024-01-04T09:44:18.019Z,45.43
2024-01-04T09:46:46.820Z,41.65
2024-01-04T09:49:15.666Z,41.02
2024-01-04T09:51:44.095Z,39.48
2024-01-04T09:54:12.941Z,38.23
2024-01-04T09:56:47.765Z,36.69
2024-01-04T09:59:15.954Z,36.27
2024-01-04T10:01:44.636Z,36.06
2024-01-04T10:04:14.601Z,36.88
2024-01-04T10:06:45.054Z,36.53
2024-01-04T10:09:55.349Z,38.06
2024-01-04T10:12:24.635Z,38.06
2024-01-04T10:14:52.736Z,37.53
2024-01-04T10:17:21.025Z,37.33
2024-01-04T10:19:49.069Z,38.74
2024-01-04T10:22:23.438Z,39.24
2024-01-04T10:24:53.121Z,37.49
2024-01-04T10:27:21.642Z,36.50
2024-01-04T10:29:53.106Z,35.08
2024-01-04T10:32:21.261Z,34.16
2024-01-04T10:34:49.245Z,32.23
2024-01-04T10:37:23.817Z,31.22
2024-01-04T10:39:59.601Z,30.83
2024-01-04T10:42:28.463Z,30.11
2024-01-04T10:44:56.721Z,29.19
2024-01-04T10:47:25.359Z,28.04
2024-01-04T10:49:59.437Z,28.60
2024-01-04T10:52:35.250Z,27.45
2024-01-04T10:55:05.379Z,26.69
2024-01-04T10:57:35.086Z,27.06
2024-01-04T11:00:05.110Z,25.79
2024-01-04T11:02:35.051Z,26.50
2024-01-04T11:05:05.228Z,26.29
2024-01-04T11:07:35.198Z,26.48
2024-01-04T11:10:03.318Z,25.59
2024-01-04T11:12:32.915Z,25.21
2024-01-04T11:15:01.147Z,25.56
2024-01-04T11:17:54.556Z,26.19
2024-01-04T11:20:36.966Z,25.88
2024-01-04T11:23:22.444Z,25.41
2024-01-04T11:26:02.401Z,24.23
2024-01-04T11:28:39.464Z,24.43
2024-01-04T11:31:09.105Z,25.86
2024-01-04T11:33:44.158Z,25.98
2024-01-04T11:36:18.001Z,25.89
2024-01-04T11:38:47.646Z,25.15
2024-01-04T11:41:15.692Z,24.66
2024-01-04T11:43:48.047Z,25.17
2024-01-04T11:46:24.069Z,26.30
2024-01-04T11:49:03.759Z,26.37
2024-01-04T11:51:46.577Z,27.42
2024-01-04T11:54:17.033Z,29.42
2024-01-04T11:56:47.045Z,28.97
2024-01-04T11:59:19.909Z,29.97
2024-01-04T12:01:48.345Z,29.70
2024-01-04T12:04:17.536Z,27.89
2024-01-04T12:06:47.464Z,28.52
2024-01-04T12:09:19.106Z,28.48
2024-01-04T12:11:59.040Z,27.77
2024-01-04T12:14:27.801Z,27.77
2024-01-04T12:16:55.735Z,27.25
2024-01-04T12:19:23.812Z,26.89
2024-01-04T12:21:51.960Z,27.13
2024-01-04T12:24:21.027Z,27.30
2024-01-04T12:26:49.938Z,27.54
2024-01-04T12:29:18.151Z,27.95
2024-01-04T12:31:46.502Z,28.01
2024-01-04T12:34:14.951Z,29.61
2024-01-04T12:36:43.340Z,30.39
2024-01-04T12:39:15.264Z,30.77
2024-01-04T12:41:46.763Z,30.46
2024-01-04T12:44:15.865Z,30.55
2024-01-04T12:46:45.685Z,31.91
2024-01-04T12:49:17.527Z,32.83
2024-01-04T12:51:48.184Z,33.05
2024-01-04T12:54:16.670Z,34.73
2024-01-04T12:56:44.821Z,35.42
2024-01-04T12:59:14.182Z,36.77
2024-01-04T13:01:42.228Z,38.50
2024-01-04T13:04:10.188Z,40.54
2024-01-04T13:06:38.567Z,42.42
2024-01-04T13:09:07.326Z,44.21
2024-01-04T13:11:35.482Z,46.31
2024-01-04T13:14:04.017Z,45.82
2024-01-04T13:16:32.297Z,47.35
2024-01-04T13:19:00.367Z,48.53
2024-01-04T13:21:28.624Z,48.44
2024-01-04T13:23:57.049Z,48.76
2024-01-04T13:26:25.267Z,51.05
2024-01-04T13:28:53.480Z,52.03
2024-01-04T13:31:22.145Z,50.69
2024-01-04T13:33:50.527Z,51.29
2024-01-04T13:36:19.488Z,51.57
2024-01-04T13:38:47.776Z,51.71
2024-01-04T13:41:15.850Z,52.21
2024-01-04T13:43:44.010Z,51.70
2024-01-04T13:46:11.990Z,52.41
2024-01-04T13:48:40.370Z,52.62
2024-01-04T13:51:08.799Z,52.70
2024-01-04T13:53:36.823Z,52.28
2024-01-04T13:56:05.205Z,52.85
2024-01-04T13:58:33.380Z,51.38
2024-01-04T14:01:01.373Z,52.10
2024-01-04T14:03:29.427Z,53.11
2024-01-04T14:05:57.652Z,53.05
2024-01-04T14:08:26.924Z,52.96
2024-01-04T14:10:57.368Z,54.08
2024-01-04T14:13:25.343Z,55.73
2024-01-04T14:15:53.282Z,56.44
2024-01-04T14:22:56.515Z,66.86
2024-01-04T14:25:24.780Z,71.90
2024-01-04T14:27:52.741Z,75.87
2024-01-04T14:30:20.993Z,79.12
2024-01-04T14:32:49.793Z,82.06
2024-01-04T14:35:17.963Z,82.86
2024-01-04T14:37:46.094Z,83.09
2024-01-04T14:40:19.692Z,83.64
2024-01-04T14:42:48.841Z,83.15
2024-01-04T14:45:18.022Z,83.71
2024-01-04T14:47:47.489Z,83.77
2024-01-04T14:50:17.245Z,85.19
2024-01-04T14:52:45.705Z,84.11
2024-01-04T14:55:14.316Z,85.24
2024-01-04T14:57:43.954Z,85.35
2024-01-04T15:00:13.985Z,85.48
2024-01-04T15:02:42.489Z,84.45
2024-01-04T15:05:11.305Z,85.15
2024-01-04T15:07:40.260Z,86.29
2024-01-04T15:10:10.717Z,85.50
2024-01-04T15:12:41.316Z,83.87
2024-01-04T15:15:17.045Z,83.93
2024-01-04T15:17:52.312Z,84.87
2024-01-04T15:20:20.856Z,81.87
2024-01-04T15:22:49.190Z,83.00
2024-01-04T15:25:17.764Z,81.96
2024-01-04T15:27:46.383Z,81.93
2024-01-04T15:44:01.763Z,83.84
2024-01-04T15:46:30.819Z,84.11
2024-01-04T15:48:59.692Z,84.89
2024-01-04T15:51:28.562Z,84.57
2024-01-04T15:54:00.333Z,83.86
2024-01-04T15:56:32.616Z,83.02
2024-01-04T15:59:01.729Z,83.80
2024-01-04T16:01:30.691Z,84.15
2024-01-04T16:04:00.072Z,83.79
2024-01-04T16:06:28.785Z,82.09
2024-01-04T16:08:58.019Z,81.04
2024-01-04T16:11:26.751Z,81.94
2024-01-04T16:13:55.670Z,82.07
2024-01-04T16:16:24.666Z,81.23
2024-01-04T16:18:53.951Z,82.74
2024-01-04T16:21:22.686Z,82.34
2024-01-04T16:23:52.170Z,81.78
2024-01-04T16:26:21.173Z,81.04
2024-01-04T16:28:49.929Z,82.53
2024-01-04T16:31:18.672Z,82.65
2024-01-04T16:33:49.084Z,80.96
2024-01-04T16:36:18.857Z,81.80
2024-01-04T16:38:48.278Z,81.25
2024-01-04T16:41:16.827Z,81.10
2024-01-04T16:43:45.482Z,79.79
2024-01-04T16:46:14.002Z,81.38
2024-01-04T16:48:42.986Z,82.20
2024-01-04T16:51:14.360Z,82.62
2024-01-04T16:53:44.150Z,81.64
2024-01-04T16:56:13.577Z,81.21
2024-01-04T16:58:42.256Z,81.60
2024-01-04T17:01:11.248Z,81.68
2024-01-04T17:04:01.767Z,82.24
2024-01-04T17:06:31.039Z,82.33
2024-01-04T17:09:02.436Z,81.69
2024-01-04T17:11:30.904Z,81.76
2024-01-04T17:13:59.431Z,80.16
2024-01-04T17:16:27.874Z,80.71
2024-01-04T17:18:56.749Z,81.60
2024-01-04T17:21:25.483Z,81.60
2024-01-04T17:23:54.248Z,80.87
2024-01-04T17:26:23.021Z,80.57
2024-01-04T17:28:51.636Z,80.92
2024-01-04T17:31:21.498Z,80.35
2024-01-04T17:33:50.222Z,79.71
2024-01-04T17:36:25.884Z,79.57
2024-01-04T17:39:01.462Z,80.01
2024-01-04T17:41:32.831Z,79.28
2024-01-04T17:44:01.000Z,78.97
2024-01-04T17:46:29.096Z,79.29
2024-01-04T17:48:57.991Z,78.83
2024-01-04T17:51:26.415Z,79.03
2024-01-04T17:53:54.554Z,78.86
2024-01-04T17:56:23.278Z,77.41
2024-01-04T17:58:51.286Z,77.12
2024-01-04T18:01:23.586Z,77.72
2024-01-04T18:03:52.266Z,79.17
2024-01-04T18:06:21.243Z,79.02
2024-01-04T18:08:53.336Z,78.40
2024-01-04T18:11:23.152Z,78.53
2024-01-04T18:13:51.789Z,78.88
2024-01-04T18:16:20.674Z,79.41
2024-01-04T18:18:50.289Z,79.96
2024-01-04T18:21:20.582Z,80.99
2024-01-04T18:23:50.240Z,81.30
2024-01-04T18:26:19.007Z,81.28
2024-01-04T18:28:47.803Z,80.09
2024-01-04T18:31:16.579Z,81.05
2024-01-04T18:33:45.804Z,80.75
2024-01-04T18:36:15.280Z,81.49
2024-01-04T18:38:48.002Z,81.44
2024-01-04T18:41:24.192Z,81.91
2024-01-04T18:43:53.194Z,81.58
2024-01-04T18:46:21.829Z,82.69
2024-01-04T18:48:50.529Z,82.36
2024-01-04T18:51:20.074Z,81.93
2024-01-04T18:53:49.104Z,82.89
2024-01-04T18:56:18.285Z,83.57
2024-01-04T18:58:46.630Z,84.20
2024-01-04T19:01:15.667Z,84.14
2024-01-04T19:03:44.360Z,84.14
2024-01-04T19:06:13.285Z,85.09
2024-01-04T19:08:42.763Z,84.80
2024-01-04T19:11:12.044Z,85.23
2024-01-04T19:13:42.313Z,85.14
2024-01-04T19:16:11.051Z,85.25
2024-01-04T19:18:50.078Z,85.40
2024-01-04T19:21:20.853Z,85.33
2024-01-04T19:23:49.778Z,85.01
2024-01-04T19:26:18.724Z,84.80
2024-01-04T19:28:49.067Z,84.67
2024-01-04T19:31:22.352Z,85.53
2024-01-04T19:33:52.210Z,85.36
2024-01-04T19:36:21.086Z,85.47
2024-01-04T19:38:49.833Z,85.74
2024-01-04T19:41:20.775Z,84.98
2024-01-04T19:43:49.558Z,84.54
2024-01-04T19:46:19.448Z,84.54
2024-01-04T19:48:48.304Z,85.86
2024-01-04T19:51:17.251Z,86.31
2024-01-04T19:53:45.950Z,85.97
2024-01-04T19:56:14.745Z,85.96
2024-01-04T19:58:44.714Z,86.38
2024-01-04T20:01:13.498Z,87.21
2024-01-04T20:03:43.657Z,87.36
2024-01-04T20:06:12.461Z,87.75
2024-01-04T20:08:41.138Z,87.72
2024-01-04T20:11:11.178Z,87.36
2024-01-04T20:13:59.950Z,87.11
2024-01-04T20:16:28.979Z,86.59
2024-01-04T20:18:58.210Z,87.28
2024-01-04T20:21:49.569Z,87.05
2024-01-04T20:24:19.294Z,86.37
2024-01-04T20:26:47.841Z,86.11
2024-01-04T20:29:18.754Z,85.81
2024-01-04T20:31:48.257Z,85.44
2024-01-04T20:34:17.197Z,85.18
2024-01-04T20:36:46.025Z,85.77
2024-01-04T20:39:16.018Z,85.27
2024-01-04T20:41:45.210Z,85.76
2024-01-04T20:44:13.773Z,86.53
2024-01-04T20:46:43.119Z,86.05
2024-01-04T20:49:12.474Z,85.82
2024-01-04T20:51:41.424Z,85.31
2024-01-04T20:54:11.702Z,85.89
2024-01-04T20:56:40.963Z,86.30
2024-01-04T20:59:12.997Z,86.55
2024-01-04T21:01:41.726Z,86.61
2024-01-04T21:04:10.648Z,87.61
2024-01-04T21:06:41.062Z,87.47
2024-01-04T21:09:12.909Z,87.01
2024-01-04T21:11:41.666Z,85.97
2024-01-04T21:14:25.057Z,85.72
2024-01-04T21:16:53.430Z,86.19
2024-01-04T21:19:21.709Z,86.41
2024-01-04T21:21:50.236Z,86.34
2024-01-04T21:24:19.057Z,87.74
2024-01-04T21:26:47.828Z,86.57
2024-01-04T21:29:16.688Z,86.49
2024-01-04T21:31:44.923Z,86.56
2024-01-04T21:34:14.067Z,86.87
2024-01-04T21:36:43.131Z,86.33
2024-01-04T21:39:13.060Z,86.37
2024-01-04T21:41:45.015Z,86.10
2024-01-04T21:44:13.898Z,85.30
2024-01-04T21:46:43.059Z,84.31
2024-01-04T21:49:11.690Z,84.00
2024-01-04T21:51:40.123Z,84.97
2024-01-04T21:54:08.703Z,84.06
2024-01-04T21:56:37.378Z,85.02
2024-01-04T21:59:26.228Z,84.19
2024-01-04T22:01:58.089Z,84.73
2024-01-04T22:04:26.776Z,84.46
2024-01-04T22:06:55.321Z,84.79
2024-01-04T22:09:23.538Z,85.52
2024-01-04T22:11:51.601Z,86.66
2024-01-04T22:14:19.573Z,84.92
2024-01-04T22:16:47.498Z,84.90
2024-01-04T22:19:15.932Z,83.96
2024-01-04T22:21:44.020Z,85.57
2024-01-04T22:24:11.943Z,85.44
2024-01-04T22:26:41.001Z,85.90
2024-01-04T22:29:11.910Z,86.08
2024-01-04T22:31:39.846Z,86.10
2024-01-04T22:34:08.462Z,86.49
2024-01-04T22:36:38.989Z,86.39
2024-01-04T22:39:07.014Z,87.59
2024-01-04T22:41:35.121Z,87.56
2024-01-04T22:44:03.020Z,87.22
2024-01-04T22:46:31.111Z,87.46
2024-01-04T22:48:59.067Z,86.68
2024-01-04T22:51:30.474Z,88.37
2024-01-04T22:53:58.709Z,88.54
2024-01-04T22:56:26.646Z,88.05
2024-01-04T22:58:54.624Z,86.82
2024-01-04T23:01:22.805Z,87.15
2024-01-04T23:03:51.330Z,86.45
2024-01-04T23:06:19.370Z,87.42
2024-01-04T23:08:47.978Z,88.05
2024-01-04T23:11:15.928Z,87.84
2024-01-04T23:13:43.828Z,87.64
2024-01-04T23:16:14.914Z,88.02
2024-01-04T23:18:43.123Z,88.09
2024-01-04T23:21:11.265Z,87.86
2024-01-04T23:23:39.277Z,89.32
2024-01-04T23:26:07.254Z,90.38
2024-01-04T23:28:35.645Z,89.31
2024-01-04T23:31:03.664Z,88.22
2024-01-04T23:33:37.306Z,88.52
2024-01-04T23:36:10.950Z,88.92
2024-01-04T23:38:39.029Z,89.47
2024-01-04T23:41:07.214Z,89.25
2024-01-04T23:43:35.212Z,89.50
2024-01-04T23:46:03.181Z,89.71
2024-01-04T23:48:31.382Z,89.90
2024-01-04T23:50:59.845Z,89.77
2024-01-04T23:53:27.898Z,90.12
2024-01-04T23:55:55.946Z,90.22
2024-01-04T23:58:23.785Z,91.02
